sensor_id;sensor_type;location;lat;lon;timestamp;pressure;altitude;pressure_sealevel;temperature;humidity
28312;BME280;15572;48.810;9.148;2022-08-03T00:02:01;98175.13;;;19.67;77.40
28312;BME280;15572;48.810;9.148;2022-08-03T00:06:58;98164.06;;;19.62;77.73
28312;BME280;15572;48.810;9.148;2022-08-03T00:11:54;98165.84;;;19.51;77.82
28312;BME280;15572;48.810;9.148;2022-08-03T00:16:51;98168.41;;;19.58;78.88
28312;BME280;15572;48.810;9.148;2022-08-03T00:21:49;98166.03;;;19.45;79.33
28312;BME280;15572;48.810;9.148;2022-08-03T00:26:45;98158.28;;;19.42;79.40
28312;BME280;15572;48.810;9.148;2022-08-03T00:31:41;98161.25;;;19.18;80.46
28312;BME280;15572;48.810;9.148;2022-08-03T00:36:38;98161.31;;;19.23;80.40
28312;BME280;15572;48.810;9.148;2022-08-03T00:41:36;98164.44;;;19.10;80.43
28312;BME280;15572;48.810;9.148;2022-08-03T00:46:33;98161.63;;;19.05;81.08
28312;BME280;15572;48.810;9.148;2022-08-03T00:51:29;98165.28;;;18.94;82.37
28312;BME280;15572;48.810;9.148;2022-08-03T00:56:26;98158.78;;;19.00;82.67
28312;BME280;15572;48.810;9.148;2022-08-03T01:01:24;98160.38;;;18.96;82.16
28312;BME280;15572;48.810;9.148;2022-08-03T01:06:24;98154.91;;;18.96;81.97
28312;BME280;15572;48.810;9.148;2022-08-03T01:11:31;98147.75;;;18.95;82.44
28312;BME280;15572;48.810;9.148;2022-08-03T01:16:39;98142.56;;;18.99;82.45
28312;BME280;15572;48.810;9.148;2022-08-03T01:21:46;98156.28;;;18.99;82.86
28312;BME280;15572;48.810;9.148;2022-08-03T01:26:54;98150.56;;;19.00;82.80
28312;BME280;15572;48.810;9.148;2022-08-03T01:31:58;98142.41;;;19.05;83.28
28312;BME280;15572;48.810;9.148;2022-08-03T01:36:56;98141.25;;;19.01;83.26
28312;BME280;15572;48.810;9.148;2022-08-03T01:41:58;98132.13;;;18.79;84.23
28312;BME280;15572;48.810;9.148;2022-08-03T01:47:02;98134.72;;;18.69;84.27
28312;BME280;15572;48.810;9.148;2022-08-03T01:51:59;98125.50;;;18.58;84.82
28312;BME280;15572;48.810;9.148;2022-08-03T01:56:58;98123.16;;;18.67;85.60
28312;BME280;15572;48.810;9.148;2022-08-03T02:01:55;98123.47;;;18.54;86.04
28312;BME280;15572;48.810;9.148;2022-08-03T02:06:54;98121.22;;;18.50;86.22
28312;BME280;15572;48.810;9.148;2022-08-03T02:11:53;98117.88;;;18.48;86.97
28312;BME280;15572;48.810;9.148;2022-08-03T02:16:51;98124.31;;;18.37;87.54
28312;BME280;15572;48.810;9.148;2022-08-03T02:21:50;98131.59;;;18.32;87.95
28312;BME280;15572;48.810;9.148;2022-08-03T02:26:50;98126.19;;;18.20;88.16
28312;BME280;15572;48.810;9.148;2022-08-03T02:31:48;98131.56;;;18.15;88.52
28312;BME280;15572;48.810;9.148;2022-08-03T02:36:48;98124.59;;;18.24;88.46
28312;BME280;15572;48.810;9.148;2022-08-03T02:41:50;98130.34;;;18.39;88.64
28312;BME280;15572;48.810;9.148;2022-08-03T02:46:48;98121.13;;;18.45;89.06
28312;BME280;15572;48.810;9.148;2022-08-03T02:51:50;98128.88;;;18.32;89.63
28312;BME280;15572;48.810;9.148;2022-08-03T02:56:49;98116.72;;;18.28;89.81
28312;BME280;15572;48.810;9.148;2022-08-03T03:01:47;98115.97;;;18.16;90.29
28312;BME280;15572;48.810;9.148;2022-08-03T03:06:44;98124.19;;;18.16;90.99
28312;BME280;15572;48.810;9.148;2022-08-03T03:11:41;98118.81;;;18.21;91.20
28312;BME280;15572;48.810;9.148;2022-08-03T03:16:41;98119.97;;;18.25;91.62
28312;BME280;15572;48.810;9.148;2022-08-03T03:21:39;98127.31;;;18.07;92.26
28312;BME280;15572;48.810;9.148;2022-08-03T03:26:38;98119.09;;;18.07;92.30
28312;BME280;15572;48.810;9.148;2022-08-03T03:31:35;98113.34;;;17.92;92.80
28312;BME280;15572;48.810;9.148;2022-08-03T03:36:34;98117.19;;;18.08;92.89
28312;BME280;15572;48.810;9.148;2022-08-03T03:41:31;98120.63;;;18.15;92.73
28312;BME280;15572;48.810;9.148;2022-08-03T03:46:27;98111.22;;;18.11;93.11
28312;BME280;15572;48.810;9.148;2022-08-03T03:51:24;98112.84;;;17.95;93.94
28312;BME280;15572;48.810;9.148;2022-08-03T03:56:22;98116.00;;;17.87;94.12
28312;BME280;15572;48.810;9.148;2022-08-03T04:01:19;98113.94;;;17.94;93.89
28312;BME280;15572;48.810;9.148;2022-08-03T04:06:15;98114.13;;;18.04;93.97
28312;BME280;15572;48.810;9.148;2022-08-03T04:11:35;98110.50;;;18.16;94.21
28312;BME280;15572;48.810;9.148;2022-08-03T04:16:36;98113.94;;;18.11;93.94
28312;BME280;15572;48.810;9.148;2022-08-03T04:21:34;98126.63;;;18.00;94.63
28312;BME280;15572;48.810;9.148;2022-08-03T04:26:38;98127.13;;;17.97;94.69
28312;BME280;15572;48.810;9.148;2022-08-03T04:31:35;98126.16;;;18.03;94.39
28312;BME280;15572;48.810;9.148;2022-08-03T04:36:38;98133.88;;;18.06;94.22
28312;BME280;15572;48.810;9.148;2022-08-03T04:41:40;98133.88;;;18.06;94.45
28312;BME280;15572;48.810;9.148;2022-08-03T04:46:38;98141.66;;;17.98;95.48
28312;BME280;15572;48.810;9.148;2022-08-03T04:51:36;98138.69;;;17.99;95.08
28312;BME280;15572;48.810;9.148;2022-08-03T04:56:34;98154.56;;;18.14;94.32
28312;BME280;15572;48.810;9.148;2022-08-03T05:01:32;98144.13;;;18.44;93.21
28312;BME280;15572;48.810;9.148;2022-08-03T05:06:28;98148.00;;;18.60;92.66
28312;BME280;15572;48.810;9.148;2022-08-03T05:11:25;98140.44;;;18.84;91.82
28312;BME280;15572;48.810;9.148;2022-08-03T05:16:21;98142.16;;;19.07;91.60
28312;BME280;15572;48.810;9.148;2022-08-03T05:21:21;98138.34;;;19.29;90.69
28312;BME280;15572;48.810;9.148;2022-08-03T05:26:17;98144.22;;;19.55;89.88
28312;BME280;15572;48.810;9.148;2022-08-03T05:31:14;98148.06;;;19.75;89.81
28312;BME280;15572;48.810;9.148;2022-08-03T05:36:10;98147.50;;;20.00;89.02
28312;BME280;15572;48.810;9.148;2022-08-03T05:41:08;98141.44;;;20.25;88.21
28312;BME280;15572;48.810;9.148;2022-08-03T05:46:04;98151.88;;;20.50;87.82
28312;BME280;15572;48.810;9.148;2022-08-03T05:51:01;98153.19;;;20.74;87.00
28312;BME280;15572;48.810;9.148;2022-08-03T05:55:59;98147.28;;;20.92;86.44
28312;BME280;15572;48.810;9.148;2022-08-03T06:00:57;98145.22;;;21.10;85.96
28312;BME280;15572;48.810;9.148;2022-08-03T06:05:53;98150.84;;;21.25;86.32
28312;BME280;15572;48.810;9.148;2022-08-03T06:10:50;98147.34;;;21.39;85.94
28312;BME280;15572;48.810;9.148;2022-08-03T06:15:47;98152.38;;;21.53;85.28
28312;BME280;15572;48.810;9.148;2022-08-03T06:20:44;98154.06;;;21.64;84.97
28312;BME280;15572;48.810;9.148;2022-08-03T06:25:41;98147.78;;;21.73;84.65
28312;BME280;15572;48.810;9.148;2022-08-03T06:30:38;98149.75;;;21.88;84.00
28312;BME280;15572;48.810;9.148;2022-08-03T06:35:34;98145.44;;;22.02;83.07
28312;BME280;15572;48.810;9.148;2022-08-03T06:40:34;98144.94;;;22.20;82.75
28312;BME280;15572;48.810;9.148;2022-08-03T06:45:34;98152.41;;;22.35;82.25
28312;BME280;15572;48.810;9.148;2022-08-03T06:50:31;98158.50;;;22.47;82.01
28312;BME280;15572;48.810;9.148;2022-08-03T06:55:28;98164.03;;;22.67;79.72
28312;BME280;15572;48.810;9.148;2022-08-03T07:00:26;98156.59;;;22.83;77.22
28312;BME280;15572;48.810;9.148;2022-08-03T07:05:23;98157.41;;;22.99;76.33
28312;BME280;15572;48.810;9.148;2022-08-03T07:10:20;98159.63;;;23.17;74.28
28312;BME280;15572;48.810;9.148;2022-08-03T07:15:16;98160.97;;;23.30;73.87
28312;BME280;15572;48.810;9.148;2022-08-03T07:20:14;98161.75;;;23.40;72.71
28312;BME280;15572;48.810;9.148;2022-08-03T07:25:12;98154.63;;;23.49;71.93
28312;BME280;15572;48.810;9.148;2022-08-03T07:30:09;98160.34;;;23.63;71.98
28312;BME280;15572;48.810;9.148;2022-08-03T07:35:07;98158.63;;;23.77;71.91
28312;BME280;15572;48.810;9.148;2022-08-03T07:40:06;98166.09;;;23.87;71.92
28312;BME280;15572;48.810;9.148;2022-08-03T07:45:03;98161.03;;;23.99;70.73
28312;BME280;15572;48.810;9.148;2022-08-03T07:50:00;98158.25;;;24.09;69.31
28312;BME280;15572;48.810;9.148;2022-08-03T07:54:57;98162.56;;;24.25;67.71
28312;BME280;15572;48.810;9.148;2022-08-03T07:59:54;98158.91;;;24.40;66.56
28312;BME280;15572;48.810;9.148;2022-08-03T08:04:51;98149.69;;;24.55;65.65
28312;BME280;15572;48.810;9.148;2022-08-03T08:09:47;98150.94;;;24.72;64.33
28312;BME280;15572;48.810;9.148;2022-08-03T08:14:44;98150.56;;;24.89;63.44
28312;BME280;15572;48.810;9.148;2022-08-03T08:19:43;98148.16;;;25.06;61.84
28312;BME280;15572;48.810;9.148;2022-08-03T08:24:39;98145.78;;;25.24;60.78
28312;BME280;15572;48.810;9.148;2022-08-03T08:29:38;98150.94;;;25.35;60.41
28312;BME280;15572;48.810;9.148;2022-08-03T08:34:34;98155.41;;;25.55;58.80
28312;BME280;15572;48.810;9.148;2022-08-03T08:39:32;98152.44;;;25.75;57.17
28312;BME280;15572;48.810;9.148;2022-08-03T08:44:28;98142.81;;;25.91;56.04
28312;BME280;15572;48.810;9.148;2022-08-03T08:49:25;98143.81;;;26.01;56.01
28312;BME280;15572;48.810;9.148;2022-08-03T08:54:24;98143.00;;;26.19;55.22
28312;BME280;15572;48.810;9.148;2022-08-03T08:59:23;98140.66;;;26.31;55.39
28312;BME280;15572;48.810;9.148;2022-08-03T09:04:20;98147.69;;;26.42;55.25
28312;BME280;15572;48.810;9.148;2022-08-03T09:09:16;98141.84;;;26.62;53.94
28312;BME280;15572;48.810;9.148;2022-08-03T09:14:13;98153.31;;;26.74;53.59
28312;BME280;15572;48.810;9.148;2022-08-03T09:19:12;98142.56;;;26.87;53.29
28312;BME280;15572;48.810;9.148;2022-08-03T09:24:09;98132.56;;;27.04;52.25
28312;BME280;15572;48.810;9.148;2022-08-03T09:29:07;98134.03;;;27.15;51.60
28312;BME280;15572;48.810;9.148;2022-08-03T09:34:05;98125.94;;;27.33;49.90
28312;BME280;15572;48.810;9.148;2022-08-03T09:39:05;98131.13;;;27.53;48.83
28312;BME280;15572;48.810;9.148;2022-08-03T09:44:02;98124.66;;;27.71;48.32
28312;BME280;15572;48.810;9.148;2022-08-03T09:49:09;98132.97;;;27.85;48.10
28312;BME280;15572;48.810;9.148;2022-08-03T09:54:08;98118.34;;;27.93;47.63
28312;BME280;15572;48.810;9.148;2022-08-03T09:59:04;98117.00;;;28.18;44.94
28312;BME280;15572;48.810;9.148;2022-08-03T10:04:01;98120.53;;;28.45;44.21
28312;BME280;15572;48.810;9.148;2022-08-03T10:09:06;98116.84;;;28.72;43.60
28312;BME280;15572;48.810;9.148;2022-08-03T10:14:06;98115.34;;;28.88;43.38
28312;BME280;15572;48.810;9.148;2022-08-03T10:19:04;98109.06;;;29.05;43.02
28312;BME280;15572;48.810;9.148;2022-08-03T10:24:03;98096.25;;;29.04;42.07
28312;BME280;15572;48.810;9.148;2022-08-03T10:29:03;98105.34;;;29.18;41.22
28312;BME280;15572;48.810;9.148;2022-08-03T10:34:04;98101.47;;;29.28;41.44
28312;BME280;15572;48.810;9.148;2022-08-03T10:39:02;98093.41;;;29.49;39.81
28312;BME280;15572;48.810;9.148;2022-08-03T10:44:02;98093.44;;;29.66;38.86
28312;BME280;15572;48.810;9.148;2022-08-03T10:48:59;98079.56;;;29.75;39.25
28312;BME280;15572;48.810;9.148;2022-08-03T10:53:58;98087.19;;;30.08;39.54
28312;BME280;15572;48.810;9.148;2022-08-03T10:58:54;98072.66;;;30.55;38.15
28312;BME280;15572;48.810;9.148;2022-08-03T11:04:16;98065.94;;;31.28;36.54
28312;BME280;15572;48.810;9.148;2022-08-03T11:09:16;98059.72;;;31.90;35.37
28312;BME280;15572;48.810;9.148;2022-08-03T11:14:16;98062.41;;;32.78;34.05
28312;BME280;15572;48.810;9.148;2022-08-03T11:19:14;98063.75;;;33.37;33.04
28312;BME280;15572;48.810;9.148;2022-08-03T11:30:00;98060.47;;;34.73;30.36
28312;BME280;15572;48.810;9.148;2022-08-03T11:35:08;98052.69;;;35.10;30.06
28312;BME280;15572;48.810;9.148;2022-08-03T11:40:05;98047.94;;;35.57;30.14
28312;BME280;15572;48.810;9.148;2022-08-03T11:45:06;98041.31;;;35.81;29.75
28312;BME280;15572;48.810;9.148;2022-08-03T11:50:03;98035.22;;;36.29;27.90
28312;BME280;15572;48.810;9.148;2022-08-03T11:55:00;98036.38;;;36.63;27.48
28312;BME280;15572;48.810;9.148;2022-08-03T11:59:57;98030.41;;;37.07;27.22
28312;BME280;15572;48.810;9.148;2022-08-03T12:04:56;98027.03;;;37.43;26.93
28312;BME280;15572;48.810;9.148;2022-08-03T12:10:05;98024.31;;;37.50;26.52
28312;BME280;15572;48.810;9.148;2022-08-03T12:15:02;98028.38;;;37.07;26.64
28312;BME280;15572;48.810;9.148;2022-08-03T12:20:01;98021.25;;;37.56;26.41
28312;BME280;15572;48.810;9.148;2022-08-03T12:24:59;98012.03;;;36.75;26.93
28312;BME280;15572;48.810;9.148;2022-08-03T12:29:56;98000.88;;;37.46;26.46
28312;BME280;15572;48.810;9.148;2022-08-03T12:34:53;98004.72;;;37.84;26.05
28312;BME280;15572;48.810;9.148;2022-08-03T12:39:56;98008.34;;;38.67;25.25
28312;BME280;15572;48.810;9.148;2022-08-03T12:44:54;97989.78;;;39.03;24.55
28312;BME280;15572;48.810;9.148;2022-08-03T12:49:52;97985.91;;;39.66;24.24
28312;BME280;15572;48.810;9.148;2022-08-03T12:54:58;97978.09;;;40.03;23.98
28312;BME280;15572;48.810;9.148;2022-08-03T13:00:09;97990.88;;;40.37;23.64
28312;BME280;15572;48.810;9.148;2022-08-03T13:05:09;97976.41;;;40.67;22.83
28312;BME280;15572;48.810;9.148;2022-08-03T13:10:08;97982.16;;;40.85;22.64
28312;BME280;15572;48.810;9.148;2022-08-03T13:15:05;97972.13;;;41.23;22.52
28312;BME280;15572;48.810;9.148;2022-08-03T13:20:04;97966.03;;;41.39;22.19
28312;BME280;15572;48.810;9.148;2022-08-03T13:25:01;97966.41;;;41.19;22.14
28312;BME280;15572;48.810;9.148;2022-08-03T13:29:59;97972.16;;;41.55;22.10
28312;BME280;15572;48.810;9.148;2022-08-03T13:34:55;97978.19;;;41.89;21.63
28312;BME280;15572;48.810;9.148;2022-08-03T13:39:52;97961.16;;;41.18;21.69
28312;BME280;15572;48.810;9.148;2022-08-03T13:44:48;97955.88;;;41.27;21.68
28312;BME280;15572;48.810;9.148;2022-08-03T13:49:46;97953.47;;;41.22;22.50
28312;BME280;15572;48.810;9.148;2022-08-03T13:54:45;97955.69;;;40.53;22.94
28312;BME280;15572;48.810;9.148;2022-08-03T13:59:41;97945.50;;;39.72;23.96
28312;BME280;15572;48.810;9.148;2022-08-03T14:04:38;97942.03;;;38.94;24.65
28312;BME280;15572;48.810;9.148;2022-08-03T14:09:35;97929.44;;;37.65;25.71
28312;BME280;15572;48.810;9.148;2022-08-03T14:19:29;97921.53;;;37.51;25.58
28312;BME280;15572;48.810;9.148;2022-08-03T14:24:26;97927.28;;;37.55;25.72
28312;BME280;15572;48.810;9.148;2022-08-03T14:29:24;97918.34;;;37.53;25.96
28312;BME280;15572;48.810;9.148;2022-08-03T14:34:21;97915.25;;;37.62;26.10
28312;BME280;15572;48.810;9.148;2022-08-03T14:39:17;97919.97;;;37.54;25.77
28312;BME280;15572;48.810;9.148;2022-08-03T14:44:13;97913.41;;;37.73;25.67
28312;BME280;15572;48.810;9.148;2022-08-03T14:49:11;97913.63;;;37.87;25.51
28312;BME280;15572;48.810;9.148;2022-08-03T14:54:08;97901.66;;;38.27;25.10
28312;BME280;15572;48.810;9.148;2022-08-03T14:59:04;97895.97;;;38.57;24.96
28312;BME280;15572;48.810;9.148;2022-08-03T15:04:01;97899.94;;;38.52;25.01
28312;BME280;15572;48.810;9.148;2022-08-03T15:08:59;97890.88;;;39.13;24.41
28312;BME280;15572;48.810;9.148;2022-08-03T15:13:55;97888.06;;;39.72;24.19
28312;BME280;15572;48.810;9.148;2022-08-03T15:18:51;97883.78;;;40.03;23.66
28312;BME280;15572;48.810;9.148;2022-08-03T15:23:48;97870.16;;;40.26;23.50
28312;BME280;15572;48.810;9.148;2022-08-03T15:28:46;97867.31;;;40.26;22.66
28312;BME280;15572;48.810;9.148;2022-08-03T15:33:42;97859.75;;;39.72;23.25
28312;BME280;15572;48.810;9.148;2022-08-03T15:38:39;97860.50;;;39.58;23.91
28312;BME280;15572;48.810;9.148;2022-08-03T15:43:35;97861.47;;;39.32;24.09
28312;BME280;15572;48.810;9.148;2022-08-03T15:48:33;97855.16;;;38.58;24.28
28312;BME280;15572;48.810;9.148;2022-08-03T15:53:29;97862.75;;;37.31;25.88
28312;BME280;15572;48.810;9.148;2022-08-03T15:58:27;97850.13;;;36.53;26.80
28312;BME280;15572;48.810;9.148;2022-08-03T16:03:24;97851.97;;;36.03;26.89
28312;BME280;15572;48.810;9.148;2022-08-03T16:08:23;97848.78;;;35.51;27.79
28312;BME280;15572;48.810;9.148;2022-08-03T16:13:20;97839.00;;;35.25;27.79
28312;BME280;15572;48.810;9.148;2022-08-03T16:18:17;97840.00;;;34.86;27.74
28312;BME280;15572;48.810;9.148;2022-08-03T16:23:15;97838.06;;;34.43;28.01
28312;BME280;15572;48.810;9.148;2022-08-03T16:28:14;97832.34;;;34.23;28.17
28312;BME280;15572;48.810;9.148;2022-08-03T16:33:12;97820.66;;;34.09;28.06
28312;BME280;15572;48.810;9.148;2022-08-03T16:38:08;97826.00;;;33.99;28.40
28312;BME280;15572;48.810;9.148;2022-08-03T16:43:12;97828.50;;;33.88;28.51
28312;BME280;15572;48.810;9.148;2022-08-03T16:48:10;97828.63;;;33.92;28.77
28312;BME280;15572;48.810;9.148;2022-08-03T16:53:08;97825.16;;;33.98;28.28
28312;BME280;15572;48.810;9.148;2022-08-03T16:58:05;97812.44;;;33.73;28.02
28312;BME280;15572;48.810;9.148;2022-08-03T17:03:02;97822.81;;;33.72;28.13
28312;BME280;15572;48.810;9.148;2022-08-03T17:08:00;97824.81;;;33.72;28.63
28312;BME280;15572;48.810;9.148;2022-08-03T17:12:57;97821.31;;;33.63;29.24
28312;BME280;15572;48.810;9.148;2022-08-03T17:18:00;97836.31;;;33.55;29.52
28312;BME280;15572;48.810;9.148;2022-08-03T17:23:09;97831.91;;;33.41;29.81
28312;BME280;15572;48.810;9.148;2022-08-03T17:28:06;97829.00;;;33.26;30.15
28312;BME280;15572;48.810;9.148;2022-08-03T17:33:02;97827.97;;;33.06;30.20
28312;BME280;15572;48.810;9.148;2022-08-03T17:38:00;97835.78;;;33.00;30.20
28312;BME280;15572;48.810;9.148;2022-08-03T17:42:58;97834.84;;;32.96;30.39
28312;BME280;15572;48.810;9.148;2022-08-03T17:47:54;97843.84;;;32.90;30.40
28312;BME280;15572;48.810;9.148;2022-08-03T17:52:56;97852.34;;;32.81;30.62
28312;BME280;15572;48.810;9.148;2022-08-03T17:58:00;97842.78;;;32.70;30.98
28312;BME280;15572;48.810;9.148;2022-08-03T18:03:04;97855.72;;;32.63;31.17
28312;BME280;15572;48.810;9.148;2022-08-03T18:08:17;97855.69;;;32.50;31.11
28312;BME280;15572;48.810;9.148;2022-08-03T18:13:20;97858.00;;;32.36;30.82
28312;BME280;15572;48.810;9.148;2022-08-03T18:18:18;97849.56;;;32.24;30.64
28312;BME280;15572;48.810;9.148;2022-08-03T18:23:22;97857.44;;;32.10;31.27
28312;BME280;15572;48.810;9.148;2022-08-03T18:28:21;97857.47;;;31.89;32.18
28312;BME280;15572;48.810;9.148;2022-08-03T18:33:17;97857.47;;;31.68;33.06
28312;BME280;15572;48.810;9.148;2022-08-03T18:38:15;97852.00;;;31.51;33.70
28312;BME280;15572;48.810;9.148;2022-08-03T18:43:12;97857.22;;;31.32;34.51
28312;BME280;15572;48.810;9.148;2022-08-03T18:48:20;97855.16;;;30.91;35.63
28312;BME280;15572;48.810;9.148;2022-08-03T18:53:24;97851.22;;;30.54;36.58
28312;BME280;15572;48.810;9.148;2022-08-03T18:58:33;97860.53;;;30.11;37.31
28312;BME280;15572;48.810;9.148;2022-08-03T19:03:34;97850.50;;;29.76;39.78
28312;BME280;15572;48.810;9.148;2022-08-03T19:08:38;97864.47;;;29.50;39.79
28312;BME280;15572;48.810;9.148;2022-08-03T19:13:42;97861.44;;;29.12;40.41
28312;BME280;15572;48.810;9.148;2022-08-03T19:18:44;97864.47;;;28.85;41.38
28312;BME280;15572;48.810;9.148;2022-08-03T19:23:44;97872.03;;;28.54;41.49
28312;BME280;15572;48.810;9.148;2022-08-03T19:28:42;97870.75;;;28.29;41.93
28312;BME280;15572;48.810;9.148;2022-08-03T19:33:39;97874.66;;;28.05;42.59
28312;BME280;15572;48.810;9.148;2022-08-03T19:38:40;97872.50;;;27.94;42.71
28312;BME280;15572;48.810;9.148;2022-08-03T19:43:41;97880.25;;;27.83;43.17
28312;BME280;15572;48.810;9.148;2022-08-03T19:48:42;97877.47;;;27.61;44.49
28312;BME280;15572;48.810;9.148;2022-08-03T19:53:48;97876.31;;;27.48;45.24
28312;BME280;15572;48.810;9.148;2022-08-03T19:58:46;97878.56;;;27.24;46.12
28312;BME280;15572;48.810;9.148;2022-08-03T20:03:44;97873.97;;;27.06;46.27
28312;BME280;15572;48.810;9.148;2022-08-03T20:08:42;97881.69;;;26.95;46.73
28312;BME280;15572;48.810;9.148;2022-08-03T20:13:43;97879.69;;;26.82;47.18
28312;BME280;15572;48.810;9.148;2022-08-03T20:18:39;97872.00;;;26.65;48.27
28312;BME280;15572;48.810;9.148;2022-08-03T20:23:37;97872.91;;;26.47;49.32
28312;BME280;15572;48.810;9.148;2022-08-03T20:28:40;97889.03;;;26.31;49.74
28312;BME280;15572;48.810;9.148;2022-08-03T20:33:37;97883.94;;;26.20;50.13
28312;BME280;15572;48.810;9.148;2022-08-03T20:38:34;97886.06;;;26.09;50.40
28312;BME280;15572;48.810;9.148;2022-08-03T20:43:31;97884.81;;;26.02;51.05
28312;BME280;15572;48.810;9.148;2022-08-03T20:48:29;97883.75;;;25.97;51.42
28312;BME280;15572;48.810;9.148;2022-08-03T20:53:27;97880.25;;;25.92;51.31
28312;BME280;15572;48.810;9.148;2022-08-03T20:58:24;97886.31;;;25.94;50.48
28312;BME280;15572;48.810;9.148;2022-08-03T21:03:20;97885.78;;;25.92;50.41
28312;BME280;15572;48.810;9.148;2022-08-03T21:08:21;97885.22;;;25.95;49.80
28312;BME280;15572;48.810;9.148;2022-08-03T21:13:22;97889.00;;;25.99;49.06
28312;BME280;15572;48.810;9.148;2022-08-03T21:18:19;97885.63;;;26.02;48.65
28312;BME280;15572;48.810;9.148;2022-08-03T21:23:20;97878.94;;;26.03;48.16
28312;BME280;15572;48.810;9.148;2022-08-03T21:28:18;97872.56;;;26.03;47.92
28312;BME280;15572;48.810;9.148;2022-08-03T21:33:15;97875.34;;;26.03;47.70
28312;BME280;15572;48.810;9.148;2022-08-03T21:38:13;97870.44;;;26.13;45.82
28312;BME280;15572;48.810;9.148;2022-08-03T21:43:18;97869.84;;;26.16;46.11
28312;BME280;15572;48.810;9.148;2022-08-03T21:48:15;97870.72;;;25.98;47.50
28312;BME280;15572;48.810;9.148;2022-08-03T21:53:13;97880.44;;;25.82;48.89
28312;BME280;15572;48.810;9.148;2022-08-03T21:58:12;97882.03;;;25.69;49.87
28312;BME280;15572;48.810;9.148;2022-08-03T22:03:11;97882.84;;;25.51;50.71
28312;BME280;15572;48.810;9.148;2022-08-03T22:08:09;97881.94;;;25.37;51.60
28312;BME280;15572;48.810;9.148;2022-08-03T22:13:06;97887.09;;;25.25;52.32
28312;BME280;15572;48.810;9.148;2022-08-03T22:18:03;97886.97;;;25.16;52.94
28312;BME280;15572;48.810;9.148;2022-08-03T22:23:03;97889.03;;;25.05;53.24
28312;BME280;15572;48.810;9.148;2022-08-03T22:28:04;97889.75;;;24.92;53.47
28312;BME280;15572;48.810;9.148;2022-08-03T22:33:03;97888.19;;;24.81;54.02
28312;BME280;15572;48.810;9.148;2022-08-03T22:38:02;97885.78;;;24.74;54.14
28312;BME280;15572;48.810;9.148;2022-08-03T22:43:00;97884.78;;;24.65;54.62
28312;BME280;15572;48.810;9.148;2022-08-03T22:47:57;97891.78;;;24.58;54.95
28312;BME280;15572;48.810;9.148;2022-08-03T22:52:54;97897.44;;;24.48;55.54
28312;BME280;15572;48.810;9.148;2022-08-03T22:57:52;97893.13;;;24.37;55.96
28312;BME280;15572;48.810;9.148;2022-08-03T23:02:50;97891.28;;;24.27;56.78
28312;BME280;15572;48.810;9.148;2022-08-03T23:07:49;97899.94;;;24.15;57.13
28312;BME280;15572;48.810;9.148;2022-08-03T23:12:48;97897.59;;;24.04;57.46
28312;BME280;15572;48.810;9.148;2022-08-03T23:17:50;97892.72;;;23.90;58.25
28312;BME280;15572;48.810;9.148;2022-08-03T23:22:47;97902.44;;;23.83;58.47
28312;BME280;15572;48.810;9.148;2022-08-03T23:27:44;97888.66;;;23.78;58.61
28312;BME280;15572;48.810;9.148;2022-08-03T23:32:41;97899.22;;;23.71;58.82
28312;BME280;15572;48.810;9.148;2022-08-03T23:37:39;97903.66;;;23.67;58.63
28312;BME280;15572;48.810;9.148;2022-08-03T23:42:36;97907.00;;;23.64;59.50
28312;BME280;15572;48.810;9.148;2022-08-03T23:47:34;97905.41;;;23.58;59.78
28312;BME280;15572;48.810;9.148;2022-08-03T23:52:33;97915.94;;;23.56;59.82
28312;BME280;15572;48.810;9.148;2022-08-03T23:57:37;97899.94;;;23.42;60.29
